Переход р. Верхняя Ерга

Карта отелей и гостиниц, располагающихся рядом с аэропортом Переход р. Верхняя Ерга :

Переход р. Верхняя Ерга Вологодская область 60° 44' 1.644" N, 45° 24' 29.592" E
Код аэродрома ИКАО
HE8V
Код аэродрома RU
ХЕ8Ж
Координаты
N60.73379° E045.40822°
Превышение над уровнем моря
125
Основная полоса
Курс магнитный
Длина основной ВПП
20
Ширина основной ВПП
20
Покрытие основной ВПП
Твёрдое (бетон)
Освещение ВПП
Нет
Тип: 
Вертодром
Класс аэродрома: 
Принадлежность: 
ГА
Статус: 
Действующий
Сайт: 
E-mail аэродрома: 
Страна: 
Россия
Регион: 
Вологодская область
Город: 
Дополнительная информация: 
Используется вертолетами "Газпромавиа" и МАРЗ.

Найти трансфер

С помощью этой формы Вы можете найти трансфер из аэропорта Переход р. Верхняя Ерга в город, аэропорт или вокзал:

Карта места

Javascript is required to view this map.

Погода в аэропортах:

Авиационная погода в Мирном

Регион: 
Погода METAR: 
UERR 241700Z 21003MPS 9999 -SHSN FEW009 OVC020CB M00/M01 Q0997 R25/591032 NOSIG RMK QFE717/0956
Время наблюдения
2021-10-24T17:00:00Z
Температура C
0.0
Точка росы
-1.0
Направление ветра
210
Скорость ветра (узлы)
6
Метео видимость
6.21
Явления погоды
-SHSN
Условия полета
MVFR
Аэропорт подробнее: 

Авиационная погода в Чимкенте

Регион: 
Погода METAR: 
UAII 241800Z 13003MPS 3100 FU NSC 08/03 Q1016 R10/0///70 NOSIG RMK QFE727/0969
Время наблюдения
2021-10-24T18:00:00Z
Температура C
8.0
Точка росы
3.0
Направление ветра
130
Скорость ветра (узлы)
6
Метео видимость
1.93
Явления погоды
FU
Условия полета
IFR
Аэропорт подробнее: 

Авиационная погода в Вардё

Регион: 
Погода METAR: 
ENSS 241650Z 34006KT 9999 VCSH SCT030 M01/M06 Q1013 RMK WIND 500FT 36014KT
Время наблюдения
2021-10-24T16:50:00Z
Температура C
-1.0
Точка росы
-6.0
Направление ветра
340
Скорость ветра (узлы)
6
Метео видимость
6.21
Явления погоды
VCSH
Условия полета
VFR

Авиационная погода в Зонгулдаке

Регион: 
Погода METAR: 
LTAS 241350Z 04003KT 340V110 6000 -SHRA FEW009 BKN023 BKN080 12/12 Q1026
Время наблюдения
2021-10-24T13:50:00Z
Температура C
12.0
Точка росы
12.0
Направление ветра
40
Скорость ветра (узлы)
3
Метео видимость
3.73
Явления погоды
-SHRA
Условия полета
MVFR